KFIN

Flagler Executive Airport

Palm Coast, Florida, USA
METAR KFIN 211250Z 11003KT 5SM BR SKC 21/20 A3042
Observed Flight Rules
Feb-21 @ 12:50 UTC (23 minutes ago) Marginal Visual Flight Rules
Wind Visibility Clouds Conditions
110° at 3 knots 5 miles
  • Clear skies
  • Mist
Temperatures Readings
Current 21°C / 70°F
Dewpoint 20°C / 68°F
Humidity 94%
Altimeter 30.42" Hg
Pressure 1030 hPa
Elevation 10
METAR KFIN 211250Z 11003KT 5SM BR SKC 21/20 A3042
Observed Flight Rules
Feb-21 @ 12:50 UTC
(23 minutes ago)
MVFR
Wind Visibility
110° at 3 knots 5 miles
Clouds
  • Clear skies
Conditions
  • Mist
Temperature Dewpoint
21°C / 70°F 20°C / 68°F
Humidity Altimeter Pressure
94% 30.42" Hg 1030 hPa